Big Bear Station Historical Data
Daily Summary for August 16, 2017 Units:  English    Metric   Both
« Previous Day
Next Day »
Daily Weekly Monthly Yearly Custom
  High: Low: Average:
Temperature: 76.1 °F 45.9 °F 59.8 °F
Dew Point: 48.1 °F 12.5 °F 30.9 °F
Humidity: 62 % 16 % 36 %
Wind Speed: 6.8 mph 0.0 mph 1.7 mph
Wind Gust: -999.0 mph - -
Wind:- - WSW
Pressure: 30.23 in 30.14 in -
Precipitation: 0.00 in    
Historical Graphs
 
 
Tabular Data for August 16, 2017
Time Temperature Dew Point Pressure Wind Wind Speed Wind Gust Humidity Rainfall Rate (Hourly)
00:08 49.1 °F 15.7 °F 30.15 in South 1.1 mph -999.0 mph 26 % 0 in
00:23 49.3 °F 14.9 °F 30.15 in SSE 1.7 mph -999.0 mph 25 % 0 in
00:39 49.5 °F 14.2 °F 30.15 in Calm   -999.0 mph 24 % 0 in
00:54 49.1 °F 15.7 °F 30.14 in Calm   -999.0 mph 26 % 0 in
01:09 49.1 °F 13.8 °F 30.14 in Calm   -999.0 mph 24 % 0 in
01:24 48.6 °F 16.1 °F 30.14 in Calm   -999.0 mph 27 % 0 in
01:40 48.6 °F 18.5 °F 30.14 in South 1.7 mph -999.0 mph 30 % 0 in
01:55 48.2 °F 14.9 °F 30.14 in South 1.7 mph -999.0 mph 26 % 0 in
02:10 47.7 °F 14.5 °F 30.14 in Calm   -999.0 mph 26 % 0 in
02:26 48.0 °F 17.2 °F 30.14 in South 2.2 mph -999.0 mph 29 % 0 in
02:41 47.7 °F 17.0 °F 30.14 in Calm   -999.0 mph 29 % 0 in
02:56 47.3 °F 15.8 °F 30.14 in SE 1.7 mph -999.0 mph 28 % 0 in
03:12 47.5 °F 21.9 °F 30.14 in SSE 2.2 mph -999.0 mph 36 % 0 in
03:27 47.8 °F 15.4 °F 30.14 in Calm   -999.0 mph 27 % 0 in
03:42 47.8 °F 14.5 °F 30.14 in South 1.7 mph -999.0 mph 26 % 0 in
03:57 47.7 °F 14.5 °F 30.14 in South 2.2 mph -999.0 mph 26 % 0 in
04:12 47.5 °F 12.5 °F 30.14 in SSE 1.7 mph -999.0 mph 24 % 0 in
04:28 47.1 °F 15.6 °F 30.14 in SE 2.2 mph -999.0 mph 28 % 0 in
04:43 47.3 °F 19.6 °F 30.14 in SSE 2.2 mph -999.0 mph 33 % 0 in
04:58 47.3 °F 15.8 °F 30.14 in South 2.2 mph -999.0 mph 28 % 0 in
05:14 47.3 °F 15.0 °F 30.14 in Calm   -999.0 mph 27 % 0 in
05:29 46.6 °F 16.0 °F 30.14 in Calm   -999.0 mph 29 % 0 in
05:44 46.4 °F 15.0 °F 30.15 in South 1.7 mph -999.0 mph 28 % 0 in
05:59 46.6 °F 15.2 °F 30.15 in Calm   -999.0 mph 28 % 0 in
06:14 45.9 °F 14.6 °F 30.15 in Calm   -999.0 mph 28 % 0 in
06:30 46.0 °F 16.3 °F 30.16 in Calm   -999.0 mph 30 % 0 in
06:45 46.6 °F 22.3 °F 30.16 in Calm   -999.0 mph 38 % 0 in
07:00 47.1 °F 23.4 °F 30.16 in Calm   -999.0 mph 39 % 0 in
07:15 47.5 °F 23.8 °F 30.17 in Calm   -999.0 mph 39 % 0 in
07:30 47.8 °F 25.2 °F 30.17 in Calm   -999.0 mph 41 % 0 in
07:46 49.6 °F 27.4 °F 30.17 in Calm   -999.0 mph 42 % 0 in
08:01 49.5 °F 27.3 °F 30.17 in Calm   -999.0 mph 42 % 0 in
08:16 50.9 °F 29.2 °F 30.17 in Calm   -999.0 mph 43 % 0 in
08:31 52.7 °F 27.1 °F 30.17 in Calm   -999.0 mph 37 % 0 in
08:47 56.8 °F 20.4 °F 30.18 in WNW 1.1 mph -999.0 mph 24 % 0 in
09:02 59.9 °F 17.5 °F 30.18 in Calm   -999.0 mph 19 % 0 in
09:17 62.2 °F 18.1 °F 30.18 in Calm   -999.0 mph 18 % 0 in
09:32 63.5 °F 17.9 °F 30.18 in SSW 3.7 mph -999.0 mph 17 % 0 in
09:48 64.4 °F 19.9 °F 30.18 in NNW 5.8 mph -999.0 mph 18 % 0 in
10:03 65.1 °F 25.3 °F 30.18 in NNW 3.2 mph -999.0 mph 22 % 0 in
10:18 66.2 °F 18.7 °F 30.18 in WNW 1.1 mph -999.0 mph 16 % 0 in
10:34 67.5 °F 19.7 °F 30.19 in NE 4.2 mph -999.0 mph 16 % 0 in
10:49 69.1 °F 23.8 °F 30.19 in SSE 3.2 mph -999.0 mph 18 % 0 in
11:04 70.2 °F 24.7 °F 30.19 in North 2.7 mph -999.0 mph 18 % 0 in
11:19 70.3 °F 26.1 °F 30.19 in WNW 2.7 mph -999.0 mph 19 % 0 in
11:35 72.1 °F 30.0 °F 30.19 in NW 2.2 mph -999.0 mph 21 % 0 in
11:50 73.0 °F 31.9 °F 30.19 in NW 3.7 mph -999.0 mph 22 % 0 in
12:05 72.9 °F 34.0 °F 30.19 in WNW 5.8 mph -999.0 mph 24 % 0 in
12:20 72.3 °F 33.5 °F 30.20 in WNW 3.7 mph -999.0 mph 24 % 0 in
12:36 74.1 °F 36.0 °F 30.20 in NNW 4.2 mph -999.0 mph 25 % 0 in
12:51 74.1 °F 33.9 °F 30.20 in NW 6.8 mph -999.0 mph 23 % 0 in
13:06 73.6 °F 35.6 °F 30.20 in NNE 3.7 mph -999.0 mph 25 % 0 in
13:21 73.8 °F 37.7 °F 30.20 in NE 2.2 mph -999.0 mph 27 % 0 in
13:36 75.2 °F 38.0 °F 30.20 in NNW 3.7 mph -999.0 mph 26 % 0 in
13:52 75.0 °F 37.8 °F 30.19 in NNW 3.7 mph -999.0 mph 26 % 0 in
14:07 76.1 °F 40.6 °F 30.19 in NW 2.7 mph -999.0 mph 28 % 0 in
14:22 76.1 °F 38.7 °F 30.19 in West 3.7 mph -999.0 mph 26 % 0 in
14:37 75.7 °F 40.3 °F 30.19 in NW 3.7 mph -999.0 mph 28 % 0 in
14:52 75.4 °F 40.0 °F 30.19 in WNW 3.2 mph -999.0 mph 28 % 0 in
15:08 75.9 °F 41.4 °F 30.19 in NW 4.7 mph -999.0 mph 29 % 0 in
15:23 73.9 °F 43.0 °F 30.19 in South 2.2 mph -999.0 mph 33 % 0 in
15:38 73.6 °F 45.7 °F 30.18 in NNW 4.2 mph -999.0 mph 37 % 0 in
15:54 73.2 °F 46.1 °F 30.18 in NNW 3.7 mph -999.0 mph 38 % 0 in
16:09 73.6 °F 45.7 °F 30.18 in NNE 2.2 mph -999.0 mph 37 % 0 in
16:24 72.1 °F 45.1 °F 30.18 in SSW 3.7 mph -999.0 mph 38 % 0 in
16:39 72.3 °F 46.0 °F 30.18 in WNW 2.7 mph -999.0 mph 39 % 0 in
16:54 74.3 °F 47.7 °F 30.18 in NNW 5.3 mph -999.0 mph 39 % 0 in
17:10 74.5 °F 46.5 °F 30.18 in NNW 6.8 mph -999.0 mph 37 % 0 in
17:25 74.7 °F 47.4 °F 30.18 in NNW 3.2 mph -999.0 mph 38 % 0 in
17:40 73.4 °F 46.9 °F 30.18 in WNW 3.2 mph -999.0 mph 39 % 0 in
17:56 72.3 °F 46.6 °F 30.18 in NNW 3.2 mph -999.0 mph 40 % 0 in
18:11 72.5 °F 48.1 °F 30.18 in North 3.2 mph -999.0 mph 42 % 0 in
18:26 70.7 °F 47.7 °F 30.18 in WSW 2.7 mph -999.0 mph 44 % 0 in
18:42 66.4 °F 46.7 °F 30.18 in South 2.2 mph -999.0 mph 49 % 0 in
18:57 64.0 °F 46.5 °F 30.19 in Calm   -999.0 mph 53 % 0 in
19:12 63.0 °F 46.1 °F 30.19 in Calm   -999.0 mph 54 % 0 in
19:27 62.1 °F 46.2 °F 30.19 in Calm   -999.0 mph 56 % 0 in
19:43 60.8 °F 46.8 °F 30.20 in Calm   -999.0 mph 60 % 0 in
19:58 59.5 °F 46.0 °F 30.20 in Calm   -999.0 mph 61 % 0 in
20:14 58.8 °F 45.4 °F 30.20 in Calm   -999.0 mph 61 % 0 in
20:28 57.9 °F 45.0 °F 30.20 in Calm   -999.0 mph 62 % 0 in
20:44 57.4 °F 44.1 °F 30.21 in Calm   -999.0 mph 61 % 0 in
20:59 57.0 °F 42.8 °F 30.21 in Calm   -999.0 mph 59 % 0 in
21:14 56.5 °F 41.9 °F 30.21 in Calm   -999.0 mph 58 % 0 in
21:29 56.1 °F 42.4 °F 30.22 in Calm   -999.0 mph 60 % 0 in
21:44 55.4 °F 41.7 °F 30.22 in Calm   -999.0 mph 60 % 0 in
21:59 54.9 °F 41.3 °F 30.22 in Calm   -999.0 mph 60 % 0 in
22:15 54.7 °F 40.2 °F 30.22 in Calm   -999.0 mph 58 % 0 in
22:30 54.0 °F 40.0 °F 30.22 in Calm   -999.0 mph 59 % 0 in
22:45 53.8 °F 39.8 °F 30.22 in Calm   -999.0 mph 59 % 0 in
23:00 53.2 °F 39.7 °F 30.22 in Calm   -999.0 mph 60 % 0 in
23:16 53.1 °F 39.6 °F 30.22 in Calm   -999.0 mph 60 % 0 in
23:31 52.7 °F 38.8 °F 30.23 in Calm   -999.0 mph 59 % 0 in
23:46 52.3 °F 39.2 °F 30.23 in Calm   -999.0 mph 61 % 0 in
Big Bear CA Weather
Compliments of Weather Underground - 1.5 mb